createdAt,value
2022-11-22T00:00:25.621Z,5.10
2022-11-22T00:02:52.589Z,6.28
2022-11-22T00:05:19.565Z,5.00
2022-11-22T00:07:46.669Z,4.65
2022-11-22T00:10:14.772Z,7.18
2022-11-22T00:12:41.998Z,7.03
2022-11-22T00:15:09.791Z,5.60
2022-11-22T00:17:37.055Z,6.68
2022-11-22T00:20:05.559Z,5.45
2022-11-22T00:22:33.127Z,4.75
2022-11-22T00:25:00.406Z,7.10
2022-11-22T00:27:27.369Z,4.35
2022-11-22T00:29:54.150Z,6.13
2022-11-22T00:32:20.972Z,5.13
2022-11-22T00:34:47.815Z,3.75
2022-11-22T00:37:14.651Z,4.05
2022-11-22T00:39:41.739Z,6.18
2022-11-22T00:42:08.683Z,5.57
2022-11-22T00:44:35.530Z,5.57
2022-11-22T00:47:02.361Z,4.25
2022-11-22T00:49:29.642Z,5.15
2022-11-22T00:51:56.622Z,5.28
2022-11-22T00:54:23.482Z,6.82
2022-11-22T00:56:50.329Z,7.60
2022-11-22T00:59:17.111Z,6.68
2022-11-22T01:01:43.990Z,7.82
2022-11-22T01:04:10.870Z,6.00
2022-11-22T01:06:37.808Z,7.25
2022-11-22T01:09:04.804Z,6.32
2022-11-22T01:11:31.589Z,4.80
2022-11-22T01:13:58.446Z,5.18
2022-11-22T01:16:25.308Z,5.13
2022-11-22T01:18:52.302Z,4.65
2022-11-22T01:21:19.086Z,6.03
2022-11-22T01:23:45.865Z,5.13
2022-11-22T01:26:12.895Z,4.80
2022-11-22T01:28:39.730Z,4.72
2022-11-22T01:31:06.576Z,5.05
2022-11-22T01:33:33.465Z,4.75
2022-11-22T01:36:00.292Z,5.13
2022-11-22T01:38:27.263Z,5.45
2022-11-22T01:40:54.120Z,4.60
2022-11-22T01:43:26.437Z,4.40
2022-11-22T01:46:07.663Z,4.40
2022-11-22T01:48:46.966Z,6.35
2022-11-22T01:51:29.939Z,6.18
2022-11-22T01:54:00.813Z,5.05
2022-11-22T01:56:29.668Z,5.32
2022-11-22T01:59:03.573Z,4.28
2022-11-22T02:01:31.854Z,4.30
2022-11-22T02:04:00.952Z,4.22
2022-11-22T02:06:53.611Z,8.48
2022-11-22T02:09:21.982Z,4.55
2022-11-22T02:11:52.079Z,5.03
2022-11-22T02:14:25.493Z,4.40
2022-11-22T02:16:52.362Z,4.75
2022-11-22T02:19:38.114Z,4.30
2022-11-22T02:22:29.743Z,4.80
2022-11-22T02:25:02.572Z,6.40
2022-11-22T02:27:29.483Z,4.10
2022-11-22T02:29:56.311Z,5.13
2022-11-22T02:32:23.149Z,5.30
2022-11-22T02:34:51.379Z,4.50
2022-11-22T02:37:24.081Z,4.82
2022-11-22T02:39:56.311Z,7.18
2022-11-22T02:44:50.905Z,3.47
2022-11-22T02:47:17.705Z,5.97
2022-11-22T02:49:44.670Z,4.40
2022-11-22T02:52:15.589Z,3.88
2022-11-22T02:54:42.363Z,4.85
2022-11-22T02:57:09.177Z,3.75
2022-11-22T02:59:36.072Z,5.70
2022-11-22T03:02:03.548Z,5.55
2022-11-22T03:04:30.859Z,4.13
2022-11-22T03:06:59.772Z,5.85
2022-11-22T03:09:27.384Z,5.68
2022-11-22T03:11:54.885Z,3.42
2022-11-22T03:14:22.515Z,2.72
2022-11-22T03:16:49.988Z,3.15
2022-11-22T03:19:17.223Z,3.17
2022-11-22T03:21:44.325Z,3.67
2022-11-22T03:24:11.719Z,3.25
2022-11-22T03:26:39.121Z,4.05
2022-11-22T03:29:06.020Z,2.13
2022-11-22T03:31:32.952Z,2.83
2022-11-22T03:33:59.869Z,4.13
2022-11-22T03:36:26.748Z,2.28
2022-11-22T03:38:53.566Z,3.65
2022-11-22T03:41:20.366Z,3.70
2022-11-22T03:43:47.158Z,3.00
2022-11-22T03:46:15.518Z,2.63
2022-11-22T03:48:42.572Z,2.00
2022-11-22T03:51:09.571Z,2.95
2022-11-22T03:53:36.427Z,4.10
2022-11-22T03:56:03.425Z,5.47
2022-11-22T03:58:30.838Z,3.17
2022-11-22T04:00:57.981Z,3.10
2022-11-22T04:03:25.102Z,2.60
2022-11-22T04:05:51.935Z,2.53
2022-11-22T04:08:18.759Z,2.08
2022-11-22T04:10:45.525Z,2.55
2022-11-22T04:13:12.331Z,3.53
2022-11-22T04:15:39.109Z,2.72
2022-11-22T04:18:10.252Z,1.80
2022-11-22T04:20:55.562Z,3.50
2022-11-22T04:23:27.126Z,3.00
2022-11-22T04:25:57.613Z,2.83
2022-11-22T04:29:08.300Z,2.45
2022-11-22T04:31:31.338Z,4.25
2022-11-22T04:33:58.184Z,2.45
2022-11-22T04:36:24.994Z,4.07
2022-11-22T04:38:52.288Z,4.78
2022-11-22T04:41:19.091Z,2.90
2022-11-22T04:44:04.463Z,4.75
2022-11-22T04:46:31.833Z,6.18
2022-11-22T04:48:58.692Z,3.75
2022-11-22T04:51:44.071Z,4.53
2022-11-22T04:54:10.888Z,5.20
2022-11-22T04:56:37.740Z,3.72
2022-11-22T04:59:04.571Z,5.25
2022-11-22T05:01:31.436Z,5.00
2022-11-22T05:03:58.361Z,4.95
2022-11-22T05:06:25.118Z,5.22
2022-11-22T05:08:51.929Z,5.65
2022-11-22T05:11:18.728Z,6.03
2022-11-22T05:13:45.519Z,7.60
2022-11-22T05:16:14.529Z,12.32
2022-11-22T05:18:41.848Z,8.35
2022-11-22T05:21:12.005Z,7.32
2022-11-22T05:23:54.405Z,6.80
2022-11-22T05:28:51.181Z,5.85
2022-11-22T05:31:27.421Z,6.95
2022-11-22T05:33:56.242Z,7.30
2022-11-22T05:36:23.713Z,6.03
2022-11-22T05:38:51.201Z,7.90
2022-11-22T05:41:19.022Z,7.85
2022-11-22T05:43:45.917Z,6.07
2022-11-22T05:46:20.973Z,5.75
2022-11-22T05:48:51.104Z,6.50
2022-11-22T05:51:20.018Z,6.68
2022-11-22T05:53:48.629Z,8.30
2022-11-22T05:56:21.424Z,5.88
2022-11-22T05:58:48.580Z,8.13
2022-11-22T06:01:18.155Z,10.57
2022-11-22T06:03:45.849Z,11.52
2022-11-22T06:06:12.742Z,9.80
2022-11-22T06:08:41.518Z,9.43
2022-11-22T06:11:10.508Z,8.25
2022-11-22T06:13:39.015Z,7.60
2022-11-22T06:16:07.581Z,9.77
2022-11-22T06:18:35.170Z,7.90
2022-11-22T06:21:04.616Z,7.05
2022-11-22T06:23:31.811Z,8.60
2022-11-22T06:26:19.431Z,7.32
2022-11-22T06:28:48.017Z,10.20
2022-11-22T06:31:17.337Z,9.88
2022-11-22T06:33:44.943Z,8.13
2022-11-22T06:36:21.009Z,7.20
2022-11-22T06:38:48.456Z,9.45
2022-11-22T06:41:17.593Z,7.50
2022-11-22T06:43:48.985Z,7.47
2022-11-22T06:46:18.143Z,10.88
2022-11-22T06:48:45.278Z,8.70
2022-11-22T06:51:15.107Z,8.77
2022-11-22T06:53:49.927Z,8.88
2022-11-22T06:56:22.784Z,11.98
2022-11-22T06:58:51.737Z,10.60
2022-11-22T07:01:20.028Z,13.23
2022-11-22T07:03:47.481Z,10.73
2022-11-22T07:06:16.239Z,11.55
2022-11-22T07:08:44.012Z,8.88
2022-11-22T07:11:13.301Z,10.45
2022-11-22T07:13:40.304Z,9.70
2022-11-22T07:16:09.953Z,9.82
2022-11-22T07:18:36.871Z,9.43
2022-11-22T07:21:13.265Z,9.90
2022-11-22T07:23:42.817Z,9.57
2022-11-22T07:26:09.941Z,11.48
2022-11-22T07:28:37.714Z,10.50
2022-11-22T07:31:07.105Z,10.48
2022-11-22T07:33:34.571Z,9.77
2022-11-22T07:36:10.445Z,11.55
2022-11-22T07:38:37.891Z,7.88
2022-11-22T07:41:05.593Z,9.85
2022-11-22T07:43:33.588Z,12.85
2022-11-22T07:46:01.431Z,9.63
2022-11-22T07:48:28.383Z,9.80
2022-11-22T07:50:55.522Z,10.32
2022-11-22T07:53:22.334Z,8.52
2022-11-22T07:55:49.155Z,15.02
2022-11-22T07:58:15.973Z,13.18
2022-11-22T08:00:42.725Z,8.43
2022-11-22T08:03:09.586Z,9.60
2022-11-22T08:05:36.414Z,11.32
2022-11-22T08:08:03.220Z,8.02
2022-11-22T08:10:30.081Z,9.55
2022-11-22T08:13:00.295Z,9.20
2022-11-22T08:15:27.544Z,10.00
2022-11-22T08:17:54.501Z,10.52
2022-11-22T08:20:21.286Z,12.43
2022-11-22T08:22:48.097Z,10.25
2022-11-22T08:25:14.950Z,8.73
2022-11-22T08:27:43.325Z,8.95
2022-11-22T08:30:11.468Z,8.10
2022-11-22T08:32:38.722Z,10.50
2022-11-22T08:35:06.453Z,10.40
2022-11-22T08:37:33.297Z,10.95
2022-11-22T08:40:00.176Z,8.07
2022-11-22T08:42:27.384Z,9.48
2022-11-22T08:44:54.322Z,9.30
2022-11-22T08:47:21.344Z,9.77
2022-11-22T08:49:48.135Z,7.63
2022-11-22T08:52:15.419Z,9.00
2022-11-22T08:54:42.280Z,6.45
2022-11-22T08:57:09.098Z,8.00
2022-11-22T08:59:35.930Z,11.00
2022-11-22T09:02:03.190Z,8.90
2022-11-22T09:04:30.103Z,7.63
2022-11-22T09:09:44.898Z,6.43
2022-11-22T09:12:12.113Z,7.43
2022-11-22T09:14:39.023Z,9.07
2022-11-22T09:17:06.228Z,7.28
2022-11-22T09:19:34.275Z,8.10
2022-11-22T09:22:01.102Z,9.10
2022-11-22T09:24:27.925Z,7.13
2022-11-22T09:26:54.696Z,10.70
2022-11-22T09:29:21.595Z,9.13
2022-11-22T09:31:48.706Z,8.45
2022-11-22T09:34:15.533Z,6.80
2022-11-22T09:36:42.351Z,7.72
2022-11-22T09:39:09.581Z,6.68
2022-11-22T09:41:48.320Z,13.38
2022-11-22T09:44:27.250Z,6.10
2022-11-22T09:47:17.684Z,8.55
2022-11-22T09:49:55.687Z,6.95
2022-11-22T09:53:05.584Z,5.93
2022-11-22T09:55:35.421Z,6.65
2022-11-22T09:58:06.154Z,6.97
2022-11-22T10:00:34.752Z,5.85
2022-11-22T10:03:42.370Z,6.30
2022-11-22T10:06:16.922Z,6.13
2022-11-22T10:09:05.550Z,2.47
2022-11-22T10:11:45.153Z,5.15
2022-11-22T10:14:23.483Z,10.15
2022-11-22T10:17:03.927Z,6.68
2022-11-22T10:19:39.579Z,6.78
2022-11-22T10:22:14.341Z,5.13
2022-11-22T10:24:43.011Z,8.60
2022-11-22T10:27:15.834Z,8.70
2022-11-22T10:30:02.212Z,6.72
2022-11-22T10:32:54.877Z,9.55
2022-11-22T10:35:46.520Z,7.07
2022-11-22T10:38:35.261Z,10.65
2022-11-22T10:41:33.925Z,8.02
2022-11-22T10:44:18.020Z,7.22
2022-11-22T10:47:11.067Z,13.10
2022-11-22T10:49:55.397Z,7.38
2022-11-22T10:52:37.217Z,7.45
2022-11-22T10:55:16.116Z,9.05
2022-11-22T10:57:50.443Z,7.97
2022-11-22T11:00:25.196Z,10.32
2022-11-22T11:03:16.962Z,7.43
2022-11-22T11:06:57.093Z,16.85
2022-11-22T11:12:41.766Z,8.80
2022-11-22T11:15:22.414Z,12.32
2022-11-22T11:17:55.037Z,14.05
2022-11-22T11:20:29.011Z,8.30
2022-11-22T11:25:44.882Z,8.68
2022-11-22T11:28:27.630Z,12.55
2022-11-22T11:31:01.111Z,5.97
2022-11-22T11:33:33.449Z,10.38
2022-11-22T11:36:09.514Z,8.45
2022-11-22T11:38:42.310Z,7.68
2022-11-22T11:41:21.044Z,6.22
2022-11-22T11:43:48.804Z,8.93
2022-11-22T11:46:17.682Z,6.40
2022-11-22T11:48:44.921Z,5.32
2022-11-22T11:51:20.607Z,11.02
2022-11-22T11:54:10.847Z,4.53
2022-11-22T11:56:44.822Z,8.98
2022-11-22T11:59:23.262Z,9.00
2022-11-22T12:02:02.857Z,8.00
2022-11-22T12:04:33.055Z,7.25
2022-11-22T12:07:25.330Z,9.65
2022-11-22T12:09:55.243Z,5.85
2022-11-22T12:12:40.250Z,7.55
2022-11-22T12:15:15.876Z,7.53
2022-11-22T12:18:07.446Z,7.80
2022-11-22T12:21:00.228Z,6.32
2022-11-22T12:23:53.437Z,9.02
2022-11-22T12:26:20.666Z,10.13
2022-11-22T12:28:48.645Z,6.28
2022-11-22T12:31:48.298Z,4.68
2022-11-22T12:34:52.686Z,7.95
2022-11-22T12:37:31.398Z,10.52
2022-11-22T12:40:03.135Z,4.88
2022-11-22T12:42:41.614Z,3.55
2022-11-22T12:45:16.791Z,6.35
2022-11-22T12:47:45.547Z,6.40
2022-11-22T12:50:38.862Z,5.82
2022-11-22T12:53:13.564Z,5.57
2022-11-22T12:56:05.189Z,7.75
2022-11-22T12:58:37.954Z,5.40
2022-11-22T13:01:38.005Z,6.88
2022-11-22T13:04:04.850Z,7.93
2022-11-22T13:06:39.026Z,7.90
2022-11-22T13:09:10.552Z,4.57
2022-11-22T13:11:48.713Z,8.93
2022-11-22T13:14:30.501Z,5.43
2022-11-22T13:16:57.594Z,11.68
2022-11-22T13:19:27.322Z,6.53
2022-11-22T13:24:53.188Z,6.75
2022-11-22T13:27:29.345Z,5.85
2022-11-22T13:29:59.258Z,8.13
2022-11-22T13:32:34.440Z,9.90
2022-11-22T13:35:18.958Z,4.60
2022-11-22T13:38:02.633Z,6.25
2022-11-22T13:40:34.726Z,6.50
2022-11-22T13:45:52.765Z,2.50
2022-11-22T13:48:41.424Z,7.93
2022-11-22T13:51:09.426Z,2.15
2022-11-22T13:53:40.440Z,4.90
2022-11-22T13:56:16.366Z,9.23
2022-11-22T13:58:52.483Z,4.03
2022-11-22T14:01:35.008Z,6.40
2022-11-22T14:04:17.358Z,6.22
2022-11-22T14:07:01.814Z,4.00
2022-11-22T14:09:53.551Z,10.32
2022-11-22T14:13:03.740Z,3.88
2022-11-22T14:15:49.121Z,4.22
2022-11-22T14:18:30.690Z,4.97
2022-11-22T14:20:58.615Z,3.55
2022-11-22T14:23:48.356Z,2.83
2022-11-22T14:26:57.907Z,3.38
2022-11-22T14:30:02.278Z,3.90
2022-11-22T14:32:42.877Z,2.30
2022-11-22T14:35:30.138Z,3.28
2022-11-22T14:38:04.485Z,5.93
2022-11-22T14:40:41.390Z,2.65
2022-11-22T14:43:11.207Z,7.35
2022-11-22T14:45:42.459Z,8.25
2022-11-22T14:48:37.643Z,2.90
2022-11-22T14:51:04.406Z,9.10
2022-11-22T14:53:43.693Z,3.03
2022-11-22T14:56:23.382Z,11.02
2022-11-22T14:59:37.548Z,6.90
2022-11-22T15:02:58.705Z,7.70
2022-11-22T15:09:10.057Z,7.00
2022-11-22T15:09:13.960Z,9.15
2022-11-22T15:11:45.107Z,2.13
2022-11-22T15:14:48.890Z,4.05
2022-11-22T15:57:44.901Z,6.90
2022-11-22T16:00:29.543Z,4.65
2022-11-22T16:02:59.159Z,4.57
2022-11-22T16:06:09.334Z,4.47
2022-11-22T16:08:21.764Z,4.63
2022-11-22T16:10:51.100Z,8.52
2022-11-22T16:13:20.935Z,5.60
2022-11-22T16:16:33.434Z,4.70
2022-11-22T16:19:22.512Z,8.57
2022-11-22T16:22:00.048Z,4.03
2022-11-22T16:24:28.873Z,7.05
2022-11-22T16:27:05.554Z,8.90
2022-11-22T16:29:35.541Z,6.32
2022-11-22T16:32:12.150Z,7.38
2022-11-22T16:34:42.626Z,6.88
2022-11-22T16:37:37.534Z,7.97
2022-11-22T16:40:06.256Z,8.88
2022-11-22T16:42:38.084Z,11.82
2022-11-22T16:45:06.639Z,7.32
2022-11-22T16:47:33.469Z,8.68
2022-11-22T16:50:00.293Z,5.38
2022-11-22T16:52:27.085Z,7.63
2022-11-22T16:54:53.927Z,5.97
2022-11-22T16:57:20.688Z,9.50
2022-11-22T16:59:47.551Z,7.50
2022-11-22T17:02:17.136Z,4.70
2022-11-22T17:04:46.018Z,6.35
2022-11-22T17:07:14.114Z,8.95
2022-11-22T17:09:41.351Z,7.10
2022-11-22T17:12:21.311Z,5.05
2022-11-22T17:14:48.596Z,2.72
2022-11-22T17:17:15.563Z,7.28
2022-11-22T17:19:57.710Z,5.15
2022-11-22T17:22:24.557Z,7.20
2022-11-22T17:24:51.460Z,7.20
2022-11-22T17:27:18.435Z,7.88
2022-11-22T17:29:52.438Z,7.22
2022-11-22T17:32:19.797Z,6.55
2022-11-22T17:34:46.948Z,8.07
2022-11-22T17:37:13.991Z,8.85
2022-11-22T17:39:41.242Z,9.93
2022-11-22T17:42:08.170Z,12.20
2022-11-22T17:44:35.067Z,13.95
2022-11-22T17:47:02.138Z,22.08
2022-11-22T17:49:29.240Z,27.42
2022-11-22T17:51:56.244Z,30.60
2022-11-22T17:54:23.060Z,22.48
2022-11-22T17:56:50.002Z,15.93
2022-11-22T17:59:16.794Z,14.40
2022-11-22T18:01:43.618Z,15.93
2022-11-22T18:04:10.757Z,13.55
2022-11-22T18:06:37.549Z,9.40
2022-11-22T18:09:04.539Z,11.98
2022-11-22T18:11:31.633Z,11.45
2022-11-22T18:13:58.479Z,16.25
2022-11-22T18:16:28.996Z,17.15
2022-11-22T18:18:57.790Z,13.07
2022-11-22T18:21:26.484Z,19.38
2022-11-22T18:23:53.457Z,16.75
2022-11-22T18:31:54.288Z,17.55
2022-11-22T18:34:22.538Z,22.73
2022-11-22T18:37:01.974Z,24.85
2022-11-22T18:39:32.639Z,23.60
2022-11-22T18:41:59.898Z,21.33
2022-11-22T18:44:26.763Z,12.20
2022-11-22T18:46:53.530Z,12.90
2022-11-22T18:49:20.338Z,23.02
2022-11-22T18:51:47.247Z,28.88
2022-11-22T18:54:14.411Z,18.77
2022-11-22T18:56:41.238Z,13.27
2022-11-22T18:59:12.586Z,11.55
2022-11-22T19:01:40.639Z,13.23
2022-11-22T19:04:07.715Z,12.90
2022-11-22T19:06:34.591Z,9.98
2022-11-22T19:09:01.722Z,9.82
2022-11-22T19:11:34.240Z,25.63
2022-11-22T19:14:01.460Z,26.45
2022-11-22T19:16:30.145Z,12.85
2022-11-22T19:18:58.002Z,11.40
2022-11-22T19:21:26.880Z,13.38
2022-11-22T19:26:29.023Z,7.82
2022-11-22T19:28:57.748Z,8.52
2022-11-22T19:31:27.906Z,10.50
2022-11-22T19:33:55.255Z,10.43
2022-11-22T19:36:27.889Z,9.18
2022-11-22T19:38:59.552Z,5.88
2022-11-22T19:41:26.817Z,8.02
2022-11-22T19:43:55.506Z,9.25
2022-11-22T19:46:22.647Z,8.80
2022-11-22T19:48:58.607Z,9.70
2022-11-22T19:51:27.124Z,13.23
2022-11-22T19:54:02.656Z,9.85
2022-11-22T19:56:32.375Z,7.00
2022-11-22T19:59:01.041Z,8.52
2022-11-22T20:01:30.261Z,7.75
2022-11-22T20:04:03.698Z,6.63
2022-11-22T20:06:31.318Z,12.02
2022-11-22T20:09:11.416Z,7.85
2022-11-22T20:11:42.277Z,10.73
2022-11-22T20:14:09.660Z,20.05
2022-11-22T20:16:41.117Z,16.85
2022-11-22T20:19:09.673Z,9.73
2022-11-22T20:21:37.215Z,9.95
2022-11-22T20:24:05.125Z,10.07
2022-11-22T20:26:33.447Z,9.48
2022-11-22T20:29:03.269Z,8.63
2022-11-22T20:31:31.851Z,8.07
2022-11-22T20:34:00.158Z,7.40
2022-11-22T20:36:32.332Z,7.43
2022-11-22T20:41:28.127Z,6.43
2022-11-22T20:43:55.761Z,7.78
2022-11-22T20:46:24.734Z,6.70
2022-11-22T20:48:53.161Z,5.47
2022-11-22T20:51:25.360Z,9.40
2022-11-22T20:56:20.149Z,6.32
2022-11-22T20:58:47.440Z,6.13
2022-11-22T21:01:17.513Z,8.70
2022-11-22T21:03:44.956Z,6.95
2022-11-22T21:06:13.314Z,8.00
2022-11-22T21:08:40.349Z,9.43
2022-11-22T21:11:28.119Z,12.15
2022-11-22T21:13:56.623Z,6.00
2022-11-22T21:16:26.159Z,11.45
2022-11-22T21:18:54.921Z,9.63
2022-11-22T21:21:23.486Z,11.48
2022-11-22T21:23:58.277Z,8.52
2022-11-22T21:26:25.738Z,10.23
2022-11-22T21:28:53.423Z,7.82
2022-11-22T21:31:21.476Z,5.72
2022-11-22T21:33:50.106Z,6.18
2022-11-22T21:36:17.101Z,5.30
2022-11-22T21:38:43.930Z,4.00
2022-11-22T21:41:39.205Z,6.20
2022-11-22T21:44:06.483Z,6.38
2022-11-22T21:46:33.256Z,5.95
2022-11-22T21:49:00.109Z,5.45
2022-11-22T21:51:27.064Z,9.48
2022-11-22T21:53:58.503Z,6.20
2022-11-22T21:56:26.777Z,4.38
2022-11-22T21:58:53.580Z,3.83
2022-11-22T22:01:20.383Z,6.75
2022-11-22T22:03:47.173Z,5.57
2022-11-22T22:06:13.937Z,7.32
2022-11-22T22:08:40.987Z,9.35
2022-11-22T22:11:08.088Z,7.50
2022-11-22T22:13:35.009Z,7.30
2022-11-22T22:16:06.753Z,5.55
2022-11-22T22:18:38.204Z,6.32
2022-11-22T22:21:07.538Z,6.33
2022-11-22T22:23:35.646Z,7.25
2022-11-22T22:26:04.668Z,7.70
2022-11-22T22:28:33.245Z,3.58
2022-11-22T22:31:08.653Z,6.30
2022-11-22T22:33:37.854Z,6.30
2022-11-22T22:36:06.129Z,7.68
2022-11-22T22:38:33.626Z,5.45
2022-11-22T22:41:03.346Z,6.95
2022-11-22T22:43:35.375Z,3.55
2022-11-22T22:46:07.957Z,4.72
2022-11-22T22:48:34.818Z,3.72
2022-11-22T22:51:11.174Z,5.13
2022-11-22T22:53:38.078Z,3.53
2022-11-22T22:56:05.339Z,4.18
2022-11-22T22:58:32.361Z,3.03
2022-11-22T23:01:19.394Z,4.22
2022-11-22T23:03:50.790Z,5.30
2022-11-22T23:06:18.153Z,9.07
2022-11-22T23:08:47.408Z,4.10
2022-11-22T23:11:15.207Z,6.60
2022-11-22T23:13:43.375Z,5.40
2022-11-22T23:16:13.639Z,3.47
2022-11-22T23:18:42.675Z,3.30
2022-11-22T23:21:13.027Z,6.28
2022-11-22T23:23:40.231Z,7.13
2022-11-22T23:26:12.098Z,7.93
2022-11-22T23:28:39.621Z,3.25
2022-11-22T23:31:13.867Z,6.97
2022-11-22T23:33:41.699Z,3.85
2022-11-22T23:36:11.227Z,4.70
2022-11-22T23:38:38.125Z,4.57
2022-11-22T23:41:05.455Z,3.60
2022-11-22T23:43:32.641Z,6.97
2022-11-22T23:45:59.703Z,4.30
2022-11-22T23:48:27.650Z,6.90
2022-11-22T23:50:54.455Z,4.35
2022-11-22T23:53:21.408Z,2.90
2022-11-22T23:55:48.178Z,8.45
2022-11-22T23:58:15.019Z,6.10
